1923 NOT_NAMED (1923219N25131)


IBTrACS version v04r00. Visit IBTrACS website for data access.
Please direct all questions to the IBTrACS Q and A forum

Storm track - Intensity - Wind Radii - Intensity Data - Source Data - All data

Summary Information

Storm ID 1923219N25131
Start Aug 6 22Z
Landfall Aug 8 18Z
End Aug 8 22Z
ATCF IDs
Track status Best track data.

Storm track plot

Map of storm track

Intensity plots

No Intensity information for this storm


Radial wind information

No radial wind information for this storm


Position and Intensity Table

BASIN ISO_TIME_________ NATURE LAT LON
degrees north degrees east
WP 1923-08-06 22:00:00 NR 24.90 131.40
WP 1923-08-07 00:00:00 NR 25.22 130.95
WP 03:00:00 NR 25.69 130.27
WP 06:00:00 NR 26.12 129.55
WP 09:00:00 NR 26.49 128.77
WP 10:00:00 NR 26.60 128.50
WP 12:00:00 NR 26.79 127.93
WP 15:00:00 NR 27.02 127.04
WP 18:00:00 NR 27.18 126.14
WP 21:00:00 NR 27.28 125.28
WP 22:00:00 NR 27.30 125.00
WP 1923-08-08 00:00:00 NR 27.34 124.49
WP 03:00:00 NR 27.35 123.76
WP 06:00:00 NR 27.34 123.08
WP 09:00:00 NR 27.31 122.42
WP 10:00:00 NR 27.30 122.20
WP 12:00:00 NR 27.29 121.77
WP 15:00:00 NR 27.28 121.12
WP 18:00:00 NR 27.29 120.47
WP 21:00:00 NR 27.30 119.82
WP 22:00:00 NR 27.30 119.60

Source Information

Agency Information
USA
TOKYO
CMA
HKO
NEWDELHI
REUNION
BOM
NADI
WELLINGTON
DS824
TD9636 cons_worldwide_trop_cyclone_18710101-19891231-003:Line=6982
TD9635
NEUMANN
MLC

All available IBTrACS Data

SEASON BASIN SUBBASIN ISO_TIME_________ NATURE LAT LON DIST2LAND LANDFALL IFLAG USA SSHS TD9636 LAT TD9636 LON TD9636 STAGE STORM SPEED STORM DIR
Year degrees north degrees east km km 1 degrees north degrees east kts degrees
1923 WP MM 1923-08-06 22:00:00 NR 24.90 131.40 684 648 __________O___ -1 24.90 131.40 4 16 308
1923 WP MM 1923-08-07 00:00:00 NR 25.22 130.95 648 592 __________P___ -1 25.22 130.95 4 16 307
1923 WP MM 03:00:00 NR 25.69 130.27 592 557 __________P___ -1 25.69 130.27 4 16 305
1923 WP MM 06:00:00 NR 26.12 129.55 559 532 __________P___ -1 26.12 129.55 4 16 301
1923 WP MM 09:00:00 NR 26.49 128.77 535 531 __________P___ -1 26.49 128.77 4 16 297
1923 WP MM 10:00:00 NR 26.60 128.50 535 529 __________O___ -1 26.60 128.50 4 16 292
1923 WP MM 12:00:00 NR 26.79 127.93 539 537 __________P___ -1 26.79 127.93 4 16 288
1923 WP MM 15:00:00 NR 27.02 127.04 546 459 __________P___ -1 27.02 127.04 4 16 284
1923 WP MM 18:00:00 NR 27.18 126.14 459 380 __________P___ -1 27.18 126.14 4 16 279
1923 WP MM 21:00:00 NR 27.28 125.28 380 352 __________P___ -1 27.28 125.28 4 15 277
1923 WP MM 22:00:00 NR 27.30 125.00 352 306 __________O___ -1 27.30 125.00 4 14 275
1923 WP MM 1923-08-08 00:00:00 NR 27.34 124.49 306 238 __________P___ -1 27.34 124.49 4 13 273
1923 WP MM 03:00:00 NR 27.35 123.76 238 184 __________P___ -1 27.35 123.76 4 13 270
1923 WP MM 06:00:00 NR 27.34 123.08 184 136 __________P___ -1 27.34 123.08 4 12 268
1923 WP MM 09:00:00 NR 27.31 122.42 136 125 __________P___ -1 27.31 122.42 4 12 267
1923 WP MM 10:00:00 NR 27.30 122.20 125 101 __________O___ -1 27.30 122.20 4 12 268
1923 WP MM 12:00:00 NR 27.29 121.77 101 45 __________P___ -1 27.29 121.77 4 12 269
1923 WP MM 15:00:00 NR 27.28 121.12 45 0 __________P___ -1 27.28 121.12 4 12 270
1923 WP MM 18:00:00 NR 27.29 120.47 0 0 __________P___ -1 27.29 120.47 4 12 271
1923 WP MM 21:00:00 NR 27.30 119.82 0 0 __________P___ -1 27.30 119.82 4 12 271
1923 WP MM 22:00:00 NR 27.30 119.60 0 __________O___ -1 27.30 119.60 7 12 271